AirNav   Everest Fuels
 
 400 users online  

19PA Lake Airport
Millville, Pennsylvania, USA

GOING TO MILLVILLE?


FAA INFORMATION EFFECTIVE 22 APRIL 2021

Location

FAA Identifier: 19PA
Lat/Long: 41-07-01.3000N 076-31-14.7800W
41-07.021667N 076-31.246333W
41.1170278,-76.5207722
(estimated)
Elevation: 750 ft. / 229 m (estimated)
Variation: 11W (1990)
From city: 1 mile SE of MILLVILLE, PA
Time zone: UTC -4 (UTC -5 during Standard Time)
Zip code: 17846

Airport Operations

Airport use: Private use. Permission required prior to landing
Activation date: 08/1994
Control tower: no
ARTCC: NEW YORK CENTER
FSS: WILLIAMSPORT FLIGHT SERVICE STATION
Attendance: UNATNDD
Wind indicator: yes
Segmented circle: no

Airport Communications

WX AWOS-3 at 79PN (10 nm SW): 118.075 (570-271-8192)
WX AWOS-3 at N79 (17 nm S): 119.175 (570-672-0389)
WX ASOS at IPT (20 nm W): 125.225 (570-368-3420)

Nearby radio navigation aids

VOR radial/distance  VOR name  Freq  Var
MIPr058/8.6MILTON VORTAC109.2009W
FQMr148/17.6WILLIAMSPORT VOR/DME114.4009W
SEGr048/25.6SELINSGROVE VOR/DME110.4008W
RAVr017/34.0RAVINE VORTAC114.6011W
LVZr266/38.7WILKES-BARRE VORTAC111.6010W

Airport Services

Runway Information

Runway 3/21

Dimensions: 500 x 100 ft. / 152 x 30 m
Surface: turf
RUNWAY 3  RUNWAY 21
Traffic pattern: leftleft
Obstructions: none35 ft. trees, 1000 ft. from runway

Airport Ownership and Management from official FAA records

Ownership: Privately-owned
Owner: JON LAWRENCE RIDER
240 STATE ST
MILLVILLE, PA 17846
Phone 717-458-6091
Manager: JONLAWRENCE RIDER
240 STATE ST
MILLVILLE, PA 17846
Phone 171-458-6091

Airport Operational Statistics

Aircraft based on the field: 2
Single engine airplanes: 1
Ultralights: 1
    

Additional Remarks

FOR CD CTC NEW YORK ARTCC AT 631-468-1425.

Instrument Procedures

There are no published instrument procedures at 19PA.

Some nearby airports with instrument procedures:

N13 - Bloomsburg Municipal Airport (8 nm SE)
8N8 - Danville Airport (12 nm SW)
N79 - Northumberland County Airport (17 nm S)
KIPT - Williamsport Regional Airport (20 nm NW)
KSEG - Penn Valley Airport (24 nm SW)
 
Loc | Ops | Rwys | IFR | FBO | Links
Com | Nav | Svcs | Stats | Notes
Area around 19PA (Lake Airport)
 
Road maps at: MapQuest Bing Google
 
Aerial photo
No photo
 
Sectional chart

 
Airport distance calculator
Flying to Lake Airport? Find the distance to fly.

From to 19PA

Sunrise and sunset
Times for 09-May-2021
 Local
(UTC-4)
 Zulu
(UTC)
Morning civil twilight05:2409:24
Sunrise05:5509:55
Sunset20:1000:10
Evening civil twilight20:4100:41

Current date and time
Zulu (UTC)  09-May-2021 07:17:09
Local (UTC-4)  09-May-2021 03:17:09
 
METAR
KIPT 
20nm NW 
090654Z AUTO 00000KT 10SM CLR 04/02 A3005 RMK AO2 SLP179 T00440022
KSEG 
24nm SW 
090653Z AUTO 35003KT 10SM CLR 02/01 A3007 RMK AO2 SLP186 T00170011
KHZL 
25nm E 
090655Z AUTO 00000KT 10SM SCT039 04/02 A3006 RMK AO2
KAVP 
38nm E 
090654Z 00000KT 10SM CLR 04/03 A3003 RMK AO2 SLP173 T00440028
K22N 
39nm SE 
090655Z AUTO 00000KT 10SM CLR 03/03 A3005 RMK AO2
TAF
KIPT 
20nm NW 
090532Z 0906/1006 27005KT P6SM SCT050 FM091600 15006KT 4SM -RA OVC025 FM092000 12007KT 3SM -RA BR OVC008 FM100400 06008G15KT 2SM -RA BR OVC006
NOTAMs
Click for the latest NOTAMs
NOTAMs are issued by the DoD/FAA and will open in a separate window not controlled by AirNav.

 

 
 

Would you like to see your business listed on this page?

 If your business provides an interesting product or service to pilots, flight crews, aircraft, or users of the Lake Airport, you should consider listing it here.  To start the listing process, click on the button below
 
Add a business
 

Other Pages about Lake Airport

Update a link
 
Copyright © AirNav, LLC. All rights reserved. Privacy Policy  Contact